Flight Track Log - Related Links

Times and Time Zones

All times are in EDT time to prevent confusion due to time zone crossing. See the UAL582 flight status page for this flight to view local times or setup timezone preferences in your user account.

Time Position Orientation Groundspeed Altitude Reporting Facility
EDT Latitude Longitude Course Direction KTS MPH feet Rate Location/Type
Thu 08:43:26 PM 41.9333 -87.8333 180° South 221 254 3,200  Level Chicago TRACON
Thu 08:44:49 PM 41.8414 -87.7783 156° South 282 325 5,000 745 Climbing Chicago Center
Thu 08:45:51 PM 41.7611 -87.7750 178° South 287 330 5,000 1,790 Level Chicago Center
Thu 08:46:00 PM 41.5162 -87.6920 176° South  Level Estimated
Thu 08:46:53 PM 41.6769 -87.7914 188° South 309 356 8,700  Level Chicago Center
Thu 08:47:00 PM 41.3997 -87.6388 187° South  Level Estimated
Thu 08:47:55 PM 41.5911 -87.8200 194° South 317 365 12,100  Level Chicago Center
Thu 08:48:00 PM 41.2833 -87.5859 180° South  Level Estimated
Thu 08:48:57 PM 41.4869 -87.8531 193° South 386 444 13,200  Level Chicago Center
Thu 08:49:59 PM 41.3622 -87.8836 190° South 443 510 16,400 2,855 Climbing Chicago Center
Thu 08:51:01 PM 41.2289 -87.8917 183° South 469 540 19,100 2,832 Climbing Chicago Center
Thu 08:52:04 PM 41.0647 -87.8864 179° South 491 565 22,300 2,640 Climbing Chicago Center
Thu 08:53:06 PM 40.9222 -87.8808 178° South 508 585 24,600 1,984 Climbing Chicago Center
Thu 08:54:08 PM 40.7761 -87.8764 179° South 523 602 26,400 1,403 Climbing Chicago Center
Thu 08:55:10 PM 40.6281 -87.8725 179° South 531 611 27,500 1,161 Climbing Chicago Center
Thu 08:56:12 PM 40.4844 -87.8683 179° South 523 602 28,800 1,210 Climbing Chicago Center
Thu 08:57:14 PM 40.3400 -87.8631 178° South 521 600 30,000 1,210 Climbing Chicago Center
Thu 08:58:16 PM 40.1681 -87.8592 179° South 516 594 31,300 1,107 Climbing Chicago Center
Thu 08:58:57 PM 40.0797 -87.8533 177° South 515 593 31,900 882 Climbing Indianapolis Center
Thu 08:59:58 PM 39.9397 -87.8186 169° South 516 594 32,800 829 Climbing Indianapolis Center
Thu 09:01:00 PM 39.8031 -87.7728 166° South 514 592 33,600 732 Climbing Indianapolis Center
Thu 09:02:01 PM 39.6625 -87.7308 167° South 518 596 34,300 683 Climbing Indianapolis Center
Thu 09:03:03 PM 39.4931 -87.6786 167° South 523 602 35,000 339 Climbing Indianapolis Center
Thu 09:04:05 PM 39.3525 -87.6350 167° South 524 603 35,000  Level Indianapolis Center
Thu 09:05:06 PM 39.2119 -87.5908 166° South 523 602 35,000  Level Indianapolis Center
Thu 09:06:08 PM 39.0661 -87.5469 167° South 529 609 35,000  Level Indianapolis Center
Thu 09:07:10 PM 38.9225 -87.5019 166° South 528 608 35,000  Level Indianapolis Center
Thu 09:08:11 PM 38.7792 -87.4586 167° South 528 608 35,000  Level Indianapolis Center
Thu 09:09:13 PM 38.6358 -87.4147 167° South 529 609 35,000  Level Indianapolis Center
Thu 09:10:14 PM 38.4667 -87.3650 167° South 522 601 35,000  Level Indianapolis Center
Thu 09:11:16 PM 38.3264 -87.3233 167° South 523 602 35,000  Level Indianapolis Center
Thu 09:12:18 PM 38.1869 -87.2817 167° South 524 603 35,000  Level Indianapolis Center
Thu 09:13:19 PM 38.0469 -87.2528 171° South 515 593 35,000  Level Indianapolis Center
Thu 09:14:21 PM 37.9069 -87.2233 171° South 512 589 35,000  Level Indianapolis Center
Thu 09:15:23 PM 37.7661 -87.1933 170° South 514 592 35,000  Level Indianapolis Center
Thu 09:16:24 PM 37.5972 -87.1564 170° South 512 589 35,000  Level Indianapolis Center
Thu 09:17:26 PM 37.4694 -87.1283 170° South 512 589 35,000  Level Indianapolis Center
Thu 09:18:27 PM 37.3261 -87.0944 169° South 517 595 35,000  Level Indianapolis Center
Thu 09:19:29 PM 37.1850 -87.0428 164° South 524 603 35,000  Level Indianapolis Center
Thu 09:20:31 PM 37.0231 -86.9703 160° South 526 605 35,000  Level Indianapolis Center
Thu 09:21:32 PM 36.8858 -86.9097 161° South 519 597 35,000  Level Indianapolis Center
Thu 09:22:34 PM 36.7481 -86.8497 161° South 518 596 35,000  Level Indianapolis Center
Thu 09:23:36 PM 36.6114 -86.7906 161° South 513 590 35,000  Level Indianapolis Center
Thu 09:24:37 PM 36.4769 -86.7314 161° South 502 578 35,000  Level Indianapolis Center
Thu 09:25:39 PM 36.3389 -86.6728 161° South 506 582 35,000  Level Indianapolis Center
Thu 09:26:41 PM 36.2019 -86.6144 161° South 507 583 35,000  Level Indianapolis Center
Thu 09:27:43 PM 36.0669 -86.5589 162° South 505 581 35,000  Level Indianapolis Center
Thu 09:28:50 PM 35.9086 -86.4922 161° South 504 580 35,000  Level Memphis Center
Thu 09:29:50 PM 35.7775 -86.4369 161° South 504 580 35,000  Level Memphis Center
Thu 09:31:36 PM 35.5444 -86.3383 161° South 524 603 35,000  Level Atlanta Center
Thu 09:32:36 PM 35.4161 -86.2839 161° South 506 582 35,000 150 Level Atlanta Center
Thu 09:33:36 PM 35.2836 -86.2319 162° South 500 575 35,300 550 Climbing Atlanta Center
Thu 09:34:36 PM 35.1614 -86.1753 159° South 490 564 36,100 700 Climbing Atlanta Center
Thu 09:35:36 PM 35.0433 -86.1317 163° South 485 558 36,700 450 Climbing Atlanta Center
Thu 09:36:36 PM 34.9003 -86.0675 160° South 485 558 37,000 150 Climbing Atlanta Center
Thu 09:37:36 PM 34.7822 -86.0164 160° South 492 566 37,000  Level Atlanta Center
Thu 09:38:36 PM 34.6517 -85.9656 162° South 497 572 37,000  Level Atlanta Center
Thu 09:39:36 PM 34.5231 -85.9119 161° South 497 572 37,000  Level Atlanta Center
Thu 09:40:36 PM 34.3922 -85.8589 161° South 497 572 37,000  Level Atlanta Center
Thu 09:41:36 PM 34.2492 -85.8006 161° South 497 572 37,000  Level Atlanta Center
Thu 09:42:36 PM 34.1433 -85.7656 165° South 466 536 37,000  Level Atlanta Center
Thu 09:43:36 PM 34.0167 -85.7156 162° South 466 536 37,000  Level Atlanta Center
Thu 09:44:36 PM 33.8878 -85.6628 161° South 483 556 37,000  Level Atlanta Center
Thu 09:45:36 PM 33.7633 -85.6131 162° South 483 556 37,000  Level Atlanta Center
Thu 09:46:36 PM 33.6347 -85.5608 161° South 476 548 37,000  Level Atlanta Center
Thu 09:47:36 PM 33.4933 -85.5061 162° South 481 554 37,000  Level Atlanta Center
Thu 09:48:36 PM 33.3644 -85.4542 161° South 481 554 37,000  Level Atlanta Center
Thu 09:49:36 PM 33.2378 -85.4047 162° South 481 554 37,000  Level Atlanta Center
Thu 09:50:36 PM 33.1150 -85.3558 162° South 476 548 37,000  Level Atlanta Center
Thu 09:51:36 PM 32.9906 -85.3019 160° South 476 548 37,000  Level Atlanta Center
Thu 09:52:36 PM 32.8656 -85.2531 162° South 476 548 37,000  Level Atlanta Center
Thu 09:53:36 PM 32.7389 -85.2019 161° South 481 554 37,000  Level Atlanta Center
Thu 09:54:36 PM 32.6119 -85.1511 161° South 481 554 37,000 50 Level Atlanta Center
Thu 09:55:36 PM 32.4831 -85.1100 165° South 481 554 37,100  Climbing Atlanta Center
Thu 09:56:36 PM 32.3703 -85.0939 173° South 471 542 37,000 -50 Descending Atlanta Center
Thu 09:57:36 PM 32.2244 -85.0822 176° South 465 535 37,000  Level Atlanta Center
Thu 09:59:02 PM 32.0375 -85.0542 173° South 480 552 37,000  Level Jacksonville Center
Thu 10:00:02 PM 31.9103 -85.0414 175° South 480 552 37,000  Level Jacksonville Center
Thu 10:01:02 PM 31.7811 -85.0286 175° South 475 547 37,000  Level Jacksonville Center
Thu 10:02:02 PM 31.6497 -85.0158 175° South 475 547 37,000  Level Jacksonville Center
Thu 10:03:02 PM 31.5208 -84.9908 171° South 475 547 37,000  Level Jacksonville Center
Thu 10:04:02 PM 31.4050 -84.9153 151° Southeast 475 547 37,000  Level Jacksonville Center
Thu 10:05:02 PM 31.2853 -84.8372 151° Southeast 475 547 37,000  Level Jacksonville Center
Thu 10:06:02 PM 31.1694 -84.7622 151° Southeast 480 552 37,000  Level Jacksonville Center
Thu 10:07:02 PM 31.0514 -84.6869 151° Southeast 480 552 37,000  Level Jacksonville Center
Thu 10:08:02 PM 30.9378 -84.6122 151° Southeast 480 552 37,000  Level Jacksonville Center
Thu 10:09:02 PM 30.8217 -84.5350 150° Southeast 475 547 37,000  Level Jacksonville Center
Thu 10:10:02 PM 30.7036 -84.4606 152° Southeast 475 547 37,000  Level Jacksonville Center
Thu 10:11:02 PM 30.5878 -84.3814 150° Southeast 475 547 37,000  Level Jacksonville Center
Thu 10:12:02 PM 30.4861 -84.3147 151° Southeast 475 547 37,000  Level Jacksonville Center
Thu 10:13:02 PM 30.3681 -84.2383 151° Southeast 475 547 37,000  Level Jacksonville Center
Thu 10:14:02 PM 30.2436 -84.1622 152° Southeast 475 547 37,000  Level Jacksonville Center
Thu 10:15:02 PM 30.1272 -84.0861 151° Southeast 470 541 37,000  Level Jacksonville Center
Thu 10:16:02 PM 30.0131 -84.0103 150° Southeast 470 541 37,000  Level Jacksonville Center
Thu 10:17:02 PM 29.8969 -83.9397 152° Southeast 470 541 37,000 -600 Level Jacksonville Center
Thu 10:18:02 PM 29.7806 -83.8642 151° Southeast 475 547 35,800 -2,000 Descending Jacksonville Center
Thu 10:19:02 PM 29.6661 -83.7936 152° Southeast 470 541 33,000 -2,450 Descending Jacksonville Center
Thu 10:20:02 PM 29.5519 -83.7211 151° Southeast 470 541 30,900 -2,150 Descending Jacksonville Center
Thu 10:21:02 PM 29.4439 -83.6508 150° Southeast 465 535 28,700 -1,900 Descending Jacksonville Center
Thu 10:22:02 PM 29.3356 -83.5858 152° Southeast 448 516 27,100 -1,050 Descending Jacksonville Center
Thu 10:23:02 PM 29.2358 -83.5208 150° Southeast 437 503 26,600 -750 Descending Jacksonville Center
Thu 10:24:02 PM 29.1358 -83.4561 151° Southeast 426 490 25,600 -1,200 Descending Jacksonville Center
Thu 10:25:02 PM 29.0442 -83.4008 152° Southeast 403 464 24,200 -1,550 Descending Jacksonville Center
Thu 10:26:02 PM 28.9567 -83.3458 151° Southeast 379 436 22,500 -1,650 Descending Jacksonville Center
Thu 10:27:02 PM 28.8714 -83.2861 148° Southeast 367 422 20,900 -1,670 Descending Jacksonville Center
Thu 10:28:58 PM 28.7000 -83.1833 152° Southeast 344 396 17,600 -1,670 Descending Tampa TRACON
Thu 10:29:58 PM 28.6167 -83.1333 152° Southeast 337 388 16,000 -1,537 Descending Tampa TRACON
Thu 10:30:59 PM 28.5500 -83.0833 147° Southeast 327 376 14,500 -1,587 Descending Tampa TRACON
Thu 10:31:59 PM 28.4667 -83.0333 152° Southeast 320 368 12,800 -1,571 Descending Tampa TRACON
Thu 10:33:05 PM 28.3833 -82.9833 152° Southeast 312 359 11,200 -1,476 Descending Tampa TRACON
Thu 10:34:05 PM 28.3333 -82.9167 130° Southeast 304 350 9,700 -1,526 Descending Tampa TRACON
Thu 10:34:59 PM 28.3000 -82.8333 114° Southeast 298 343 8,300 -1,421 Descending Tampa TRACON
Thu 10:35:59 PM 28.2500 -82.7500 124° Southeast 288 331 7,000 -1,619 Descending Tampa TRACON
Thu 10:37:05 PM 28.2000 -82.6833 130° Southeast 276 318 4,900 -1,650 Descending Tampa TRACON
Thu 10:37:59 PM 28.1500 -82.6333 139° Southeast 273 314 3,700 -1,333 Descending Tampa TRACON

Login

Don't have an account? Register now (free) for customized features, flight alerts, and more!